sensor_id;sensor_type;location;lat;lon;timestamp;pressure;altitude;pressure_sealevel;temperature;humidity
9141;BME280;46330;50.822;7.126;2024-01-15T00:00:55;99711.06;;;0.69;100.00
9141;BME280;46330;50.822;7.126;2024-01-15T00:03:23;99710.22;;;0.72;100.00
9141;BME280;46330;50.822;7.126;2024-01-15T00:05:51;99711.09;;;0.72;100.00
9141;BME280;46330;50.822;7.126;2024-01-15T00:08:21;99705.09;;;0.73;100.00
9141;BME280;46330;50.822;7.126;2024-01-15T00:10:49;99704.25;;;0.74;100.00
9141;BME280;46330;50.822;7.126;2024-01-15T00:13:17;99699.97;;;0.75;100.00
9141;BME280;46330;50.822;7.126;2024-01-15T00:15:44;99697.38;;;0.73;100.00
9141;BME280;46330;50.822;7.126;2024-01-15T00:18:12;99686.25;;;0.74;100.00
9141;BME280;46330;50.822;7.126;2024-01-15T00:20:40;99699.06;;;0.67;100.00
9141;BME280;46330;50.822;7.126;2024-01-15T00:23:08;99687.91;;;0.62;100.00
9141;BME280;46330;50.822;7.126;2024-01-15T00:25:38;99684.44;;;0.55;100.00
9141;BME280;46330;50.822;7.126;2024-01-15T00:28:05;99679.25;;;0.53;100.00
9141;BME280;46330;50.822;7.126;2024-01-15T00:30:33;99685.28;;;0.54;100.00
9141;BME280;46330;50.822;7.126;2024-01-15T00:33:02;99677.56;;;0.56;100.00
9141;BME280;46330;50.822;7.126;2024-01-15T00:35:30;99680.13;;;0.57;100.00
9141;BME280;46330;50.822;7.126;2024-01-15T00:37:58;99679.28;;;0.55;100.00
9141;BME280;46330;50.822;7.126;2024-01-15T00:40:26;99688.72;;;0.58;100.00
9141;BME280;46330;50.822;7.126;2024-01-15T00:42:55;99683.53;;;0.53;100.00
9141;BME280;46330;50.822;7.126;2024-01-15T00:45:23;99670.66;;;0.45;100.00
9141;BME280;46330;50.822;7.126;2024-01-15T00:47:51;99672.34;;;0.42;100.00
9141;BME280;46330;50.822;7.126;2024-01-15T00:50:19;99669.75;;;0.36;100.00
9141;BME280;46330;50.822;7.126;2024-01-15T00:52:47;99666.31;;;0.37;100.00
9141;BME280;46330;50.822;7.126;2024-01-15T00:55:15;99676.59;;;0.38;100.00
9141;BME280;46330;50.822;7.126;2024-01-15T00:57:43;99678.31;;;0.41;100.00
9141;BME280;46330;50.822;7.126;2024-01-15T01:00:13;99674.06;;;0.40;100.00
9141;BME280;46330;50.822;7.126;2024-01-15T01:02:42;99667.19;;;0.42;100.00
9141;BME280;46330;50.822;7.126;2024-01-15T01:05:10;99675.75;;;0.39;100.00
9141;BME280;46330;50.822;7.126;2024-01-15T01:07:38;99674.88;;;0.36;100.00
9141;BME280;46330;50.822;7.126;2024-01-15T01:10:06;99672.31;;;0.39;100.00
9141;BME280;46330;50.822;7.126;2024-01-15T01:12:34;99673.22;;;0.42;100.00
9141;BME280;46330;50.822;7.126;2024-01-15T01:15:03;99682.63;;;0.40;100.00
9141;BME280;46330;50.822;7.126;2024-01-15T01:17:33;99677.50;;;0.45;100.00
9141;BME280;46330;50.822;7.126;2024-01-15T01:20:01;99676.66;;;0.46;100.00
9141;BME280;46330;50.822;7.126;2024-01-15T01:22:31;99670.63;;;0.42;100.00
9141;BME280;46330;50.822;7.126;2024-01-15T01:24:59;99672.31;;;0.39;100.00
9141;BME280;46330;50.822;7.126;2024-01-15T01:27:27;99669.75;;;0.37;100.00
9141;BME280;46330;50.822;7.126;2024-01-15T01:29:55;99660.31;;;0.38;100.00
9141;BME280;46330;50.822;7.126;2024-01-15T01:32:23;99670.59;;;0.36;100.00
9141;BME280;46330;50.822;7.126;2024-01-15T01:34:53;99666.28;;;0.32;100.00
9141;BME280;46330;50.822;7.126;2024-01-15T01:37:21;99667.97;;;0.29;100.00
9141;BME280;46330;50.822;7.126;2024-01-15T01:39:49;99676.53;;;0.26;100.00
9141;BME280;46330;50.822;7.126;2024-01-15T01:42:17;99659.38;;;0.21;100.00
9141;BME280;46330;50.822;7.126;2024-01-15T01:44:45;99669.66;;;0.21;100.00
9141;BME280;46330;50.822;7.126;2024-01-15T01:47:14;99664.50;;;0.18;100.00
9141;BME280;46330;50.822;7.126;2024-01-15T01:49:42;99666.22;;;0.20;100.00
9141;BME280;46330;50.822;7.126;2024-01-15T01:52:13;99667.94;;;0.21;100.00
9141;BME280;46330;50.822;7.126;2024-01-15T01:54:41;99671.34;;;0.19;100.00
9141;BME280;46330;50.822;7.126;2024-01-15T01:57:10;99649.94;;;0.18;100.00
9141;BME280;46330;50.822;7.126;2024-01-15T01:59:40;99659.34;;;0.18;100.00
9141;BME280;46330;50.822;7.126;2024-01-15T02:02:08;99662.81;;;0.24;100.00
9141;BME280;46330;50.822;7.126;2024-01-15T02:04:36;99648.22;;;0.20;100.00
9141;BME280;46330;50.822;7.126;2024-01-15T02:07:05;99656.81;;;0.25;100.00
9141;BME280;46330;50.822;7.126;2024-01-15T02:09:34;99660.25;;;0.24;100.00
9141;BME280;46330;50.822;7.126;2024-01-15T02:12:03;99657.69;;;0.29;100.00
9141;BME280;46330;50.822;7.126;2024-01-15T02:14:31;99660.28;;;0.30;100.00
9141;BME280;46330;50.822;7.126;2024-01-15T02:17:00;99659.41;;;0.31;100.00
9141;BME280;46330;50.822;7.126;2024-01-15T02:19:28;99663.72;;;0.35;100.00
9141;BME280;46330;50.822;7.126;2024-01-15T02:21:56;99660.31;;;0.38;100.00
9141;BME280;46330;50.822;7.126;2024-01-15T02:24:25;99662.03;;;0.37;100.00
9141;BME280;46330;50.822;7.126;2024-01-15T02:26:53;99662.06;;;0.43;100.00
9141;BME280;46330;50.822;7.126;2024-01-15T02:29:22;99658.59;;;0.38;100.00
9141;BME280;46330;50.822;7.126;2024-01-15T02:31:50;99656.06;;;0.40;100.00
9141;BME280;46330;50.822;7.126;2024-01-15T02:34:18;99652.63;;;0.39;100.00
9141;BME280;46330;50.822;7.126;2024-01-15T02:36:46;99669.75;;;0.36;100.00
9141;BME280;46330;50.822;7.126;2024-01-15T02:39:14;99670.59;;;0.36;100.00
9141;BME280;46330;50.822;7.126;2024-01-15T02:41:43;99671.47;;;0.37;100.00
9141;BME280;46330;50.822;7.126;2024-01-15T02:44:11;99670.59;;;0.38;100.00
9141;BME280;46330;50.822;7.126;2024-01-15T02:46:39;99670.59;;;0.38;100.00
9141;BME280;46330;50.822;7.126;2024-01-15T02:49:07;99672.31;;;0.36;100.00
9141;BME280;46330;50.822;7.126;2024-01-15T02:51:35;99668.91;;;0.37;100.00
9141;BME280;46330;50.822;7.126;2024-01-15T02:54:04;99664.56;;;0.34;100.00
9141;BME280;46330;50.822;7.126;2024-01-15T02:56:32;99668.03;;;0.38;100.00
9141;BME280;46330;50.822;7.126;2024-01-15T02:59:01;99662.88;;;0.36;100.00
9141;BME280;46330;50.822;7.126;2024-01-15T03:01:29;99659.44;;;0.34;100.00
9141;BME280;46330;50.822;7.126;2024-01-15T03:03:57;99658.56;;;0.31;100.00
9141;BME280;46330;50.822;7.126;2024-01-15T03:06:25;99658.59;;;0.34;100.00
9141;BME280;46330;50.822;7.126;2024-01-15T03:08:53;99664.63;;;0.37;100.00
9141;BME280;46330;50.822;7.126;2024-01-15T03:11:21;99665.44;;;0.38;100.00
9141;BME280;46330;50.822;7.126;2024-01-15T03:13:49;99668.03;;;0.36;100.00
9141;BME280;46330;50.822;7.126;2024-01-15T03:16:18;99663.72;;;0.35;100.00
9141;BME280;46330;50.822;7.126;2024-01-15T03:18:47;99667.19;;;0.37;100.00
9141;BME280;46330;50.822;7.126;2024-01-15T03:21:15;99665.47;;;0.36;100.00
9141;BME280;46330;50.822;7.126;2024-01-15T03:23:43;99664.59;;;0.39;100.00
9141;BME280;46330;50.822;7.126;2024-01-15T03:26:11;99657.75;;;0.36;100.00
9141;BME280;46330;50.822;7.126;2024-01-15T03:28:39;99660.31;;;0.41;100.00
9141;BME280;46330;50.822;7.126;2024-01-15T03:31:07;99662.91;;;0.39;100.00
9141;BME280;46330;50.822;7.126;2024-01-15T03:33:37;99659.47;;;0.37;100.00
9141;BME280;46330;50.822;7.126;2024-01-15T03:36:06;99651.72;;;0.34;100.00
9141;BME280;46330;50.822;7.126;2024-01-15T03:38:34;99654.28;;;0.34;100.00
9141;BME280;46330;50.822;7.126;2024-01-15T03:41:02;99645.75;;;0.34;100.00
9141;BME280;46330;50.822;7.126;2024-01-15T03:43:30;99647.44;;;0.35;100.00
9141;BME280;46330;50.822;7.126;2024-01-15T03:45:58;99657.72;;;0.33;100.00
9141;BME280;46330;50.822;7.126;2024-01-15T03:48:26;99662.88;;;0.35;100.00
9141;BME280;46330;50.822;7.126;2024-01-15T03:50:55;99662.03;;;0.36;100.00
9141;BME280;46330;50.822;7.126;2024-01-15T03:53:23;99652.59;;;0.33;100.00
9141;BME280;46330;50.822;7.126;2024-01-15T03:55:51;99655.16;;;0.35;100.00
9141;BME280;46330;50.822;7.126;2024-01-15T03:58:19;99658.59;;;0.34;100.00
9141;BME280;46330;50.822;7.126;2024-01-15T04:00:47;99659.44;;;0.36;100.00
9141;BME280;46330;50.822;7.126;2024-01-15T04:03:15;99645.75;;;0.34;100.00
9141;BME280;46330;50.822;7.126;2024-01-15T04:05:44;99649.16;;;0.36;100.00
9141;BME280;46330;50.822;7.126;2024-01-15T04:08:13;99653.47;;;0.40;100.00
9141;BME280;46330;50.822;7.126;2024-01-15T04:10:41;99643.16;;;0.38;100.00
9141;BME280;46330;50.822;7.126;2024-01-15T04:13:09;99644.91;;;0.42;100.00
9141;BME280;46330;50.822;7.126;2024-01-15T04:15:37;99644.91;;;0.41;100.00
9141;BME280;46330;50.822;7.126;2024-01-15T04:18:05;99644.91;;;0.42;100.00
9141;BME280;46330;50.822;7.126;2024-01-15T04:20:33;99652.63;;;0.44;100.00
9141;BME280;46330;50.822;7.126;2024-01-15T04:23:01;99647.50;;;0.45;100.00
9141;BME280;46330;50.822;7.126;2024-01-15T04:25:30;99644.06;;;0.43;100.00
9141;BME280;46330;50.822;7.126;2024-01-15T04:27:58;99642.34;;;0.45;100.00
9141;BME280;46330;50.822;7.126;2024-01-15T04:30:26;99635.47;;;0.44;100.00
9141;BME280;46330;50.822;7.126;2024-01-15T04:32:55;99630.34;;;0.44;100.00
9141;BME280;46330;50.822;7.126;2024-01-15T04:35:23;99629.50;;;0.45;100.00
9141;BME280;46330;50.822;7.126;2024-01-15T04:37:51;99623.47;;;0.42;100.00
9141;BME280;46330;50.822;7.126;2024-01-15T04:40:19;99625.19;;;0.44;100.00
9141;BME280;46330;50.822;7.126;2024-01-15T04:42:49;99624.34;;;0.44;100.00
9141;BME280;46330;50.822;7.126;2024-01-15T04:45:17;99626.94;;;0.45;100.00
9141;BME280;46330;50.822;7.126;2024-01-15T04:47:45;99619.22;;;0.45;100.00
9141;BME280;46330;50.822;7.126;2024-01-15T04:50:13;99624.34;;;0.47;100.00
9141;BME280;46330;50.822;7.126;2024-01-15T04:52:41;99618.38;;;0.46;100.00
9141;BME280;46330;50.822;7.126;2024-01-15T04:55:09;99619.22;;;0.45;100.00
9141;BME280;46330;50.822;7.126;2024-01-15T04:57:37;99614.94;;;0.47;100.00
9141;BME280;46330;50.822;7.126;2024-01-15T05:00:07;99613.25;;;0.49;100.00
9141;BME280;46330;50.822;7.126;2024-01-15T05:02:35;99613.22;;;0.48;100.00
9141;BME280;46330;50.822;7.126;2024-01-15T05:05:03;99606.34;;;0.47;100.00
9141;BME280;46330;50.822;7.126;2024-01-15T05:07:31;99614.09;;;0.51;100.00
9141;BME280;46330;50.822;7.126;2024-01-15T05:10:00;99609.81;;;0.52;100.00
9141;BME280;46330;50.822;7.126;2024-01-15T05:12:28;99607.25;;;0.52;100.00
9141;BME280;46330;50.822;7.126;2024-01-15T05:14:56;99609.81;;;0.52;100.00
9141;BME280;46330;50.822;7.126;2024-01-15T05:17:25;99607.22;;;0.53;100.00
9141;BME280;46330;50.822;7.126;2024-01-15T05:19:53;99608.97;;;0.54;100.00
9141;BME280;46330;50.822;7.126;2024-01-15T05:22:21;99603.81;;;0.54;100.00
9141;BME280;46330;50.822;7.126;2024-01-15T05:24:51;99605.56;;;0.59;100.00
9141;BME280;46330;50.822;7.126;2024-01-15T05:27:19;99606.41;;;0.58;100.00
9141;BME280;46330;50.822;7.126;2024-01-15T05:29:47;99608.13;;;0.59;100.00
9141;BME280;46330;50.822;7.126;2024-01-15T05:32:15;99597.81;;;0.60;100.00
9141;BME280;46330;50.822;7.126;2024-01-15T05:34:44;99605.56;;;0.59;100.00
9141;BME280;46330;50.822;7.126;2024-01-15T05:37:12;99597.81;;;0.60;100.00
9141;BME280;46330;50.822;7.126;2024-01-15T05:39:40;99600.41;;;0.62;100.00
9141;BME280;46330;50.822;7.126;2024-01-15T05:42:08;99596.13;;;0.64;100.00
9141;BME280;46330;50.822;7.126;2024-01-15T05:44:36;99595.25;;;0.63;100.00
9141;BME280;46330;50.822;7.126;2024-01-15T05:47:04;99598.72;;;0.62;100.00
9141;BME280;46330;50.822;7.126;2024-01-15T05:49:32;99603.84;;;0.64;100.00
9141;BME280;46330;50.822;7.126;2024-01-15T05:52:02;99610.72;;;0.62;100.00
9141;BME280;46330;50.822;7.126;2024-01-15T05:54:30;99603.88;;;0.65;100.00
9141;BME280;46330;50.822;7.126;2024-01-15T05:56:57;99606.44;;;0.67;100.00
9141;BME280;46330;50.822;7.126;2024-01-15T05:59:25;99606.41;;;0.64;100.00
9141;BME280;46330;50.822;7.126;2024-01-15T06:01:55;99599.56;;;0.61;100.00
9141;BME280;46330;50.822;7.126;2024-01-15T06:04:23;99605.56;;;0.63;100.00
9141;BME280;46330;50.822;7.126;2024-01-15T06:06:51;99591.81;;;0.63;100.00
9141;BME280;46330;50.822;7.126;2024-01-15T06:09:20;99585.84;;;0.62;100.00
9141;BME280;46330;50.822;7.126;2024-01-15T06:11:49;99584.13;;;0.64;100.00
9141;BME280;46330;50.822;7.126;2024-01-15T06:14:16;99590.13;;;0.62;100.00
9141;BME280;46330;50.822;7.126;2024-01-15T06:16:44;99584.97;;;0.60;100.00
9141;BME280;46330;50.822;7.126;2024-01-15T06:19:12;99582.41;;;0.60;100.00
9141;BME280;46330;50.822;7.126;2024-01-15T06:21:41;99581.53;;;0.63;100.00
9141;BME280;46330;50.822;7.126;2024-01-15T06:24:09;99568.66;;;0.60;100.00
9141;BME280;46330;50.822;7.126;2024-01-15T06:26:38;99582.41;;;0.62;100.00
9141;BME280;46330;50.822;7.126;2024-01-15T06:29:06;99580.69;;;0.59;100.00
9141;BME280;46330;50.822;7.126;2024-01-15T06:31:34;99581.53;;;0.63;100.00
9141;BME280;46330;50.822;7.126;2024-01-15T06:34:03;99576.41;;;0.61;100.00
9141;BME280;46330;50.822;7.126;2024-01-15T06:36:31;99580.69;;;0.59;100.00
9141;BME280;46330;50.822;7.126;2024-01-15T06:38:59;99578.13;;;0.61;100.00
9141;BME280;46330;50.822;7.126;2024-01-15T06:41:27;99569.53;;;0.63;100.00
9141;BME280;46330;50.822;7.126;2024-01-15T06:43:56;99561.81;;;0.56;100.00
9141;BME280;46330;50.822;7.126;2024-01-15T06:46:24;99569.53;;;0.52;100.00
9141;BME280;46330;50.822;7.126;2024-01-15T06:48:52;99568.66;;;0.49;100.00
9141;BME280;46330;50.822;7.126;2024-01-15T06:51:20;99572.09;;;0.49;100.00
9141;BME280;46330;50.822;7.126;2024-01-15T06:53:48;99572.91;;;0.50;100.00
9141;BME280;46330;50.822;7.126;2024-01-15T06:56:16;99575.50;;;0.50;100.00
9141;BME280;46330;50.822;7.126;2024-01-15T06:58:44;99562.63;;;0.45;100.00
9141;BME280;46330;50.822;7.126;2024-01-15T07:01:13;99560.91;;;0.46;100.00
9141;BME280;46330;50.822;7.126;2024-01-15T07:03:42;99560.91;;;0.44;100.00
9141;BME280;46330;50.822;7.126;2024-01-15T07:06:11;99560.91;;;0.44;100.00
9141;BME280;46330;50.822;7.126;2024-01-15T07:08:39;99565.19;;;0.42;100.00
9141;BME280;46330;50.822;7.126;2024-01-15T07:11:07;99566.06;;;0.47;100.00
9141;BME280;46330;50.822;7.126;2024-01-15T07:13:36;99562.59;;;0.44;100.00
9141;BME280;46330;50.822;7.126;2024-01-15T07:16:05;99571.22;;;0.46;100.00
9141;BME280;46330;50.822;7.126;2024-01-15T07:18:35;99567.78;;;0.51;100.00
9141;BME280;46330;50.822;7.126;2024-01-15T07:21:04;99567.78;;;0.50;100.00
9141;BME280;46330;50.822;7.126;2024-01-15T07:23:32;99553.22;;;0.52;100.00
9141;BME280;46330;50.822;7.126;2024-01-15T07:26:00;99568.66;;;0.52;100.00
9141;BME280;46330;50.822;7.126;2024-01-15T07:28:29;99565.22;;;0.53;100.00
9141;BME280;46330;50.822;7.126;2024-01-15T07:30:57;99573.81;;;0.55;100.00
9141;BME280;46330;50.822;7.126;2024-01-15T07:33:25;99558.38;;;0.55;100.00
9141;BME280;46330;50.822;7.126;2024-01-15T07:35:55;99560.09;;;0.54;100.00
9141;BME280;46330;50.822;7.126;2024-01-15T07:38:26;99559.22;;;0.54;100.00
9141;BME280;46330;50.822;7.126;2024-01-15T07:40:54;99566.09;;;0.55;100.00
9141;BME280;46330;50.822;7.126;2024-01-15T07:43:22;99568.66;;;0.53;100.00
9141;BME280;46330;50.822;7.126;2024-01-15T07:45:50;99562.66;;;0.58;100.00
9141;BME280;46330;50.822;7.126;2024-01-15T07:48:19;99547.19;;;0.53;100.00
9141;BME280;46330;50.822;7.126;2024-01-15T07:50:47;99553.22;;;0.52;100.00
9141;BME280;46330;50.822;7.126;2024-01-15T07:53:16;99560.09;;;0.58;100.00
9141;BME280;46330;50.822;7.126;2024-01-15T07:55:44;99556.69;;;0.62;100.00
9141;BME280;46330;50.822;7.126;2024-01-15T07:58:12;99561.00;;;0.67;100.00
9141;BME280;46330;50.822;7.126;2024-01-15T08:00:42;99548.97;;;0.65;100.00
9141;BME280;46330;50.822;7.126;2024-01-15T08:03:11;99556.69;;;0.72;100.00
9141;BME280;46330;50.822;7.126;2024-01-15T08:05:40;99558.41;;;0.72;100.00
9141;BME280;46330;50.822;7.126;2024-01-15T08:08:11;99556.69;;;0.66;100.00
9141;BME280;46330;50.822;7.126;2024-01-15T08:10:40;99565.28;;;0.73;100.00
9141;BME280;46330;50.822;7.126;2024-01-15T08:13:08;99548.97;;;0.72;100.00
9141;BME280;46330;50.822;7.126;2024-01-15T08:15:36;99563.59;;;0.76;100.00
9141;BME280;46330;50.822;7.126;2024-01-15T08:18:04;99564.44;;;0.77;100.00
9141;BME280;46330;50.822;7.126;2024-01-15T08:20:33;99562.72;;;0.74;100.00
9141;BME280;46330;50.822;7.126;2024-01-15T08:23:01;99551.59;;;0.80;100.00
9141;BME280;46330;50.822;7.126;2024-01-15T08:25:29;99543.84;;;0.81;100.00
9141;BME280;46330;50.822;7.126;2024-01-15T08:27:58;99550.75;;;0.84;100.00
9141;BME280;46330;50.822;7.126;2024-01-15T08:30:26;99547.31;;;0.88;100.00
9141;BME280;46330;50.822;7.126;2024-01-15T08:32:55;99545.59;;;0.85;100.00
9141;BME280;46330;50.822;7.126;2024-01-15T08:35:33;99553.31;;;0.91;100.00
9141;BME280;46330;50.822;7.126;2024-01-15T08:38:04;99555.03;;;0.91;100.00
9141;BME280;46330;50.822;7.126;2024-01-15T08:40:32;99555.91;;;0.94;100.00
9141;BME280;46330;50.822;7.126;2024-01-15T08:43:01;99544.75;;;0.95;100.00
9141;BME280;46330;50.822;7.126;2024-01-15T08:45:29;99555.03;;;0.95;100.00
9141;BME280;46330;50.822;7.126;2024-01-15T08:47:58;99550.78;;;0.99;100.00
9141;BME280;46330;50.822;7.126;2024-01-15T08:50:26;99551.63;;;0.98;100.00
9141;BME280;46330;50.822;7.126;2024-01-15T08:52:54;99556.78;;;0.99;100.00
9141;BME280;46330;50.822;7.126;2024-01-15T08:55:22;99555.03;;;1.00;100.00
9141;BME280;46330;50.822;7.126;2024-01-15T08:57:51;99549.91;;;1.04;100.00
9141;BME280;46330;50.822;7.126;2024-01-15T09:00:20;99561.06;;;1.05;100.00
9141;BME280;46330;50.822;7.126;2024-01-15T09:02:48;99566.22;;;1.05;100.00
9141;BME280;46330;50.822;7.126;2024-01-15T09:05:16;99555.91;;;1.03;100.00
9141;BME280;46330;50.822;7.126;2024-01-15T09:07:44;99562.78;;;1.09;100.00
9141;BME280;46330;50.822;7.126;2024-01-15T09:10:13;99553.34;;;1.06;100.00
9141;BME280;46330;50.822;7.126;2024-01-15T09:12:41;99551.63;;;1.04;100.00
9141;BME280;46330;50.822;7.126;2024-01-15T09:15:10;99556.78;;;1.04;100.00
9141;BME280;46330;50.822;7.126;2024-01-15T09:17:39;99554.19;;;1.07;100.00
9141;BME280;46330;50.822;7.126;2024-01-15T09:20:08;99541.34;;;1.05;100.00
9141;BME280;46330;50.822;7.126;2024-01-15T09:22:38;99551.63;;;1.07;100.00
9141;BME280;46330;50.822;7.126;2024-01-15T09:25:07;99549.91;;;1.06;100.00
9141;BME280;46330;50.822;7.126;2024-01-15T09:27:36;99543.91;;;1.08;100.00
9141;BME280;46330;50.822;7.126;2024-01-15T09:30:05;99547.34;;;1.11;100.00
9141;BME280;46330;50.822;7.126;2024-01-15T09:32:35;99547.31;;;1.06;100.00
9141;BME280;46330;50.822;7.126;2024-01-15T09:35:05;99553.34;;;1.08;100.00
9141;BME280;46330;50.822;7.126;2024-01-15T09:37:34;99544.75;;;1.03;100.00
9141;BME280;46330;50.822;7.126;2024-01-15T09:40:14;99555.06;;;1.01;100.00
9141;BME280;46330;50.822;7.126;2024-01-15T09:42:43;99549.06;;;1.02;100.00
9141;BME280;46330;50.822;7.126;2024-01-15T09:45:13;99552.47;;;0.95;100.00
9141;BME280;46330;50.822;7.126;2024-01-15T09:47:41;99560.19;;;0.92;100.00
9141;BME280;46330;50.822;7.126;2024-01-15T09:50:14;99558.47;;;0.94;100.00
9141;BME280;46330;50.822;7.126;2024-01-15T09:52:43;99557.63;;;0.92;100.00
9141;BME280;46330;50.822;7.126;2024-01-15T09:55:11;99564.47;;;0.90;100.00
9141;BME280;46330;50.822;7.126;2024-01-15T09:57:40;99561.00;;;0.73;100.00
9141;BME280;46330;50.822;7.126;2024-01-15T10:00:10;99566.97;;;0.63;100.00
9141;BME280;46330;50.822;7.126;2024-01-15T10:02:38;99568.69;;;0.63;100.00
9141;BME280;46330;50.822;7.126;2024-01-15T10:05:07;99578.97;;;0.61;100.00
9141;BME280;46330;50.822;7.126;2024-01-15T10:07:37;99574.69;;;0.59;100.00
9141;BME280;46330;50.822;7.126;2024-01-15T10:10:06;99579.81;;;0.56;100.00
9141;BME280;46330;50.822;7.126;2024-01-15T10:12:36;99587.53;;;0.52;100.00
9141;BME280;46330;50.822;7.126;2024-01-15T10:15:04;99583.22;;;0.53;100.00
9141;BME280;46330;50.822;7.126;2024-01-15T10:17:32;99586.66;;;0.52;100.00
9141;BME280;46330;50.822;7.126;2024-01-15T10:20:00;99587.50;;;0.43;100.00
9141;BME280;46330;50.822;7.126;2024-01-15T10:22:31;99586.59;;;0.41;100.00
9141;BME280;46330;50.822;7.126;2024-01-15T10:25:01;99584.91;;;0.40;100.00
9141;BME280;46330;50.822;7.126;2024-01-15T10:27:29;99584.03;;;0.44;100.00
9141;BME280;46330;50.822;7.126;2024-01-15T10:29:59;99585.78;;;0.53;100.00
9141;BME280;46330;50.822;7.126;2024-01-15T10:32:29;99591.81;;;0.57;100.00
9141;BME280;46330;50.822;7.126;2024-01-15T10:34:57;99584.13;;;0.61;100.00
9141;BME280;46330;50.822;7.126;2024-01-15T10:37:25;99590.16;;;0.65;100.00
9141;BME280;46330;50.822;7.126;2024-01-15T10:39:55;99580.69;;;0.64;100.00
9141;BME280;46330;50.822;7.126;2024-01-15T10:42:25;99588.41;;;0.64;100.00
9141;BME280;46330;50.822;7.126;2024-01-15T10:44:53;99582.41;;;0.59;100.00
9141;BME280;46330;50.822;7.126;2024-01-15T10:47:22;99585.78;;;0.48;100.00
9141;BME280;46330;50.822;7.126;2024-01-15T10:49:51;99584.03;;;0.37;100.00
9141;BME280;46330;50.822;7.126;2024-01-15T10:52:20;99592.63;;;0.42;100.00
9141;BME280;46330;50.822;7.126;2024-01-15T10:54:49;99589.16;;;0.38;100.00
9141;BME280;46330;50.822;7.126;2024-01-15T10:57:18;99593.50;;;0.45;100.00
9141;BME280;46330;50.822;7.126;2024-01-15T10:59:49;99589.22;;;0.50;100.00
9141;BME280;46330;50.822;7.126;2024-01-15T11:02:18;99585.75;;;0.47;100.00
9141;BME280;46330;50.822;7.126;2024-01-15T11:04:46;99593.47;;;0.47;100.00
9141;BME280;46330;50.822;7.126;2024-01-15T11:07:14;99588.34;;;0.42;100.00
9141;BME280;46330;50.822;7.126;2024-01-15T11:09:43;99584.88;;;0.36;100.00
9141;BME280;46330;50.822;7.126;2024-01-15T11:12:13;99578.88;;;0.35;100.00
9141;BME280;46330;50.822;7.126;2024-01-15T11:14:46;99592.63;;;0.37;100.00
9141;BME280;46330;50.822;7.126;2024-01-15T11:17:17;99585.69;;;0.27;100.00
9141;BME280;46330;50.822;7.126;2024-01-15T11:19:46;99598.56;;;0.30;100.00
9141;BME280;46330;50.822;7.126;2024-01-15T11:22:49;99588.28;;;0.30;100.00
9141;BME280;46330;50.822;7.126;2024-01-15T11:25:18;99602.91;;;0.37;100.00
9141;BME280;46330;50.822;7.126;2024-01-15T11:27:48;99597.78;;;0.40;100.00
9141;BME280;46330;50.822;7.126;2024-01-15T11:30:19;99601.16;;;0.41;100.00
9141;BME280;46330;50.822;7.126;2024-01-15T11:32:49;99607.22;;;0.47;100.00
9141;BME280;46330;50.822;7.126;2024-01-15T11:35:17;99599.50;;;0.50;100.00
9141;BME280;46330;50.822;7.126;2024-01-15T11:37:58;99601.22;;;0.51;100.00
9141;BME280;46330;50.822;7.126;2024-01-15T11:40:38;99597.84;;;0.56;100.00
9141;BME280;46330;50.822;7.126;2024-01-15T11:43:06;99606.41;;;0.64;100.00
9141;BME280;46330;50.822;7.126;2024-01-15T11:45:36;99601.25;;;0.61;100.00
9141;BME280;46330;50.822;7.126;2024-01-15T11:48:14;99611.56;;;0.64;100.00
9141;BME280;46330;50.822;7.126;2024-01-15T11:50:45;99609.88;;;0.67;100.00
9141;BME280;46330;50.822;7.126;2024-01-15T11:53:25;99609.88;;;0.67;100.00
9141;BME280;46330;50.822;7.126;2024-01-15T11:55:58;99611.59;;;0.71;100.00
9141;BME280;46330;50.822;7.126;2024-01-15T11:58:26;99616.72;;;0.65;100.00
9141;BME280;46330;50.822;7.126;2024-01-15T12:00:54;99620.13;;;0.66;100.00
9141;BME280;46330;50.822;7.126;2024-01-15T12:03:24;99617.56;;;0.61;100.00
9141;BME280;46330;50.822;7.126;2024-01-15T12:05:53;99617.59;;;0.70;100.00
9141;BME280;46330;50.822;7.126;2024-01-15T12:08:22;99603.88;;;0.71;100.00
9141;BME280;46330;50.822;7.126;2024-01-15T12:10:50;99619.31;;;0.73;100.00
9141;BME280;46330;50.822;7.126;2024-01-15T12:13:20;99599.56;;;0.69;100.00
9141;BME280;46330;50.822;7.126;2024-01-15T12:15:48;99613.28;;;0.69;100.00
9141;BME280;46330;50.822;7.126;2024-01-15T12:18:18;99599.53;;;0.63;100.00
9141;BME280;46330;50.822;7.126;2024-01-15T12:20:48;99602.97;;;0.63;100.00
9141;BME280;46330;50.822;7.126;2024-01-15T12:23:17;99604.69;;;0.66;100.00
9141;BME280;46330;50.822;7.126;2024-01-15T12:25:45;99600.44;;;0.71;100.00
9141;BME280;46330;50.822;7.126;2024-01-15T12:28:15;99589.38;;;0.93;100.00
9141;BME280;46330;50.822;7.126;2024-01-15T12:30:46;99599.69;;;1.14;100.00
9141;BME280;46330;50.822;7.126;2024-01-15T12:33:17;99587.72;;;1.30;100.00
9141;BME280;46330;50.822;7.126;2024-01-15T12:35:45;99592.84;;;1.46;100.00
9141;BME280;46330;50.822;7.126;2024-01-15T12:38:15;99580.84;;;1.51;100.00
9141;BME280;46330;50.822;7.126;2024-01-15T12:40:43;99576.53;;;1.50;100.00
9141;BME280;46330;50.822;7.126;2024-01-15T12:43:13;99582.56;;;1.77;100.00
9141;BME280;46330;50.822;7.126;2024-01-15T12:45:41;99583.41;;;1.76;100.00
9141;BME280;46330;50.822;7.126;2024-01-15T12:48:10;99598.00;;;1.60;100.00
9141;BME280;46330;50.822;7.126;2024-01-15T12:50:42;99598.03;;;1.58;100.00
9141;BME280;46330;50.822;7.126;2024-01-15T12:53:10;99598.00;;;1.46;100.00
9141;BME280;46330;50.822;7.126;2024-01-15T12:55:40;99599.72;;;1.47;100.00
9141;BME280;46330;50.822;7.126;2024-01-15T12:58:08;99594.59;;;1.46;100.00
9141;BME280;46330;50.822;7.126;2024-01-15T13:00:36;99598.03;;;1.49;100.00
9141;BME280;46330;50.822;7.126;2024-01-15T13:03:05;99597.16;;;1.44;100.00
9141;BME280;46330;50.822;7.126;2024-01-15T13:05:33;99598.03;;;1.52;100.00
9141;BME280;46330;50.822;7.126;2024-01-15T13:08:03;99596.28;;;1.50;100.00
9141;BME280;46330;50.822;7.126;2024-01-15T13:10:32;99597.16;;;1.53;100.00
9141;BME280;46330;50.822;7.126;2024-01-15T13:13:01;99606.59;;;1.59;100.00
9141;BME280;46330;50.822;7.126;2024-01-15T13:15:29;99609.16;;;1.62;100.00
9141;BME280;46330;50.822;7.126;2024-01-15T13:17:58;99590.28;;;1.63;100.00